Time;durP1;ratioP1;P1;durP2;ratioP2;P2;SDS_P1;SDS_P2;PMS_P1;PMS_P2;Temp;Humidity;BMP_temperature;BMP_pressure;BME280_temperature;BME280_humidity;BME280_pressure;Samples;Min_cycle;Max_cycle;Signal;HPM_P1;HPM_P2
2023/05/02 00:00:27;;;;;;;14.23;4.07;;;10.90;99.90;;;;;;5013636;28;20290;-78
2023/05/02 00:02:54;;;;;;;7.43;3.60;;;10.90;99.90;;;;;;5013872;28;20200;-78
2023/05/02 00:05:21;;;;;;;9.20;3.17;;;10.90;99.90;;;;;;5013242;28;20627;-78
2023/05/02 00:07:48;;;;;;;14.23;3.00;;;10.80;99.90;;;;;;5013241;28;20240;-79
2023/05/02 00:10:17;;;;;;;12.60;3.20;;;10.80;99.90;;;;;;5013481;28;20297;-77
2023/05/02 00:12:43;;;;;;;13.23;3.33;;;10.80;99.90;;;;;;5013545;28;20301;-77
2023/05/02 00:15:10;;;;;;;8.73;3.20;;;10.80;99.90;;;;;;5012413;28;20598;-78
2023/05/02 00:17:40;;;;;;;8.40;2.87;;;10.80;99.90;;;;;;5032728;28;20317;-77
2023/05/02 00:20:08;;;;;;;11.23;3.33;;;10.80;99.90;;;;;;5033179;28;20198;-78
2023/05/02 00:22:35;;;;;;;12.60;3.00;;;10.80;99.90;;;;;;5032675;28;20199;-78
2023/05/02 00:25:02;;;;;;;11.57;3.23;;;10.70;99.90;;;;;;5031504;28;20238;-79
2023/05/02 00:27:32;;;;;;;11.47;3.03;;;10.60;99.90;;;;;;5012322;28;20214;-78
2023/05/02 00:29:59;;;;;;;12.10;3.70;;;10.60;99.90;;;;;;5013249;28;20627;-77
2023/05/02 00:32:26;;;;;;;13.43;2.87;;;10.60;99.90;;;;;;5013258;28;20203;-78
2023/05/02 00:34:53;;;;;;;9.07;2.87;;;10.60;99.90;;;;;;5012319;28;20295;-78
2023/05/02 00:37:20;;;;;;;11.87;2.60;;;10.50;99.90;;;;;;5012891;28;20615;-79
2023/05/02 00:39:47;;;;;;;7.00;3.00;;;10.50;99.90;;;;;;5012683;28;20210;-78
2023/05/02 00:42:14;;;;;;;7.53;2.17;;;10.50;99.90;;;;;;5012971;28;20213;-78
2023/05/02 00:44:42;;;;;;;7.13;2.97;;;10.50;99.90;;;;;;5012898;28;20666;-78
2023/05/02 00:47:09;;;;;;;7.37;2.13;;;10.40;99.90;;;;;;5030522;28;20654;-78
2023/05/02 00:49:36;;;;;;;5.67;2.00;;;10.40;99.90;;;;;;5032168;28;20222;-77
2023/05/02 00:52:03;;;;;;;8.20;2.47;;;10.40;99.90;;;;;;5032252;28;20963;-78
2023/05/02 00:54:31;;;;;;;10.70;2.80;;;10.30;99.90;;;;;;5031395;28;20322;-78
2023/05/02 00:56:58;;;;;;;6.13;1.70;;;10.30;99.90;;;;;;5032024;28;20213;-77
2023/05/02 00:59:26;;;;;;;5.97;2.00;;;10.20;99.90;;;;;;5032757;28;20202;-77
2023/05/02 01:02:05;;;;;;;7.50;1.70;;;10.20;99.90;;;;;;5026195;28;20203;-78
2023/05/02 01:04:43;;;;;;;4.63;2.00;;;10.20;99.90;;;;;;5011765;28;20195;-78
2023/05/02 01:07:22;;;;;;;7.67;2.00;;;10.20;99.90;;;;;;5012803;28;20598;-79
2023/05/02 01:10:10;;;;;;;3.63;1.50;;;10.20;99.90;;;;;;5016260;28;20199;-78
2023/05/02 01:12:42;;;;;;;5.87;1.83;;;10.20;99.90;;;;;;5032221;28;20236;-78
2023/05/02 01:15:13;;;;;;;7.30;2.00;;;10.20;99.90;;;;;;5035328;28;20194;-78
2023/05/02 01:17:44;;;;;;;8.00;2.03;;;10.20;99.90;;;;;;5029863;28;20506;-78
2023/05/02 01:20:16;;;;;;;7.10;2.47;;;10.30;99.90;;;;;;5012194;28;20187;-78
2023/05/02 01:22:43;;;;;;;10.77;2.80;;;10.20;99.90;;;;;;5031355;28;20226;-77
2023/05/02 01:25:20;;;;;;;11.20;3.00;;;10.30;99.90;;;;;;5031407;28;20313;-78
2023/05/02 01:27:55;;;;;;;9.50;2.90;;;10.30;99.90;;;;;;5030996;28;20202;-79
2023/05/02 01:30:26;;;;;;;14.27;2.00;;;10.30;99.90;;;;;;5011657;28;20855;-78
2023/05/02 01:32:55;;;;;;;11.30;2.60;;;10.20;99.90;;;;;;5011537;28;20633;-78
2023/05/02 01:35:24;;;;;;;7.73;2.30;;;10.20;99.90;;;;;;5012418;28;20292;-79
2023/05/02 01:37:53;;;;;;;8.87;2.23;;;10.20;99.90;;;;;;5011520;28;20203;-78
2023/05/02 01:40:21;;;;;;;5.23;2.00;;;10.20;99.90;;;;;;5012129;28;20596;-78
2023/05/02 01:42:50;;;;;;;5.50;1.80;;;10.20;99.90;;;;;;5011740;28;20211;-78
2023/05/02 01:45:20;;;;;;;6.53;1.63;;;10.20;99.90;;;;;;5011210;28;20273;-78
2023/05/02 01:47:50;;;;;;;5.67;1.60;;;10.20;99.90;;;;;;5011828;28;20197;-77
2023/05/02 01:50:20;;;;;;;4.73;1.73;;;10.20;99.90;;;;;;5012015;28;20690;-78
2023/05/02 01:52:48;;;;;;;5.77;1.80;;;10.20;99.90;;;;;;5011336;28;20199;-78
2023/05/02 01:55:17;;;;;;;6.63;1.77;;;10.20;99.90;;;;;;5011789;28;20202;-78
2023/05/02 01:57:46;;;;;;;9.20;1.50;;;10.20;99.90;;;;;;5031961;28;20205;-78
2023/05/02 02:00:15;;;;;;;7.03;1.77;;;10.20;99.90;;;;;;5031174;28;20289;-78
2023/05/02 02:02:45;;;;;;;8.07;2.33;;;10.20;99.90;;;;;;5013694;28;20214;-78
2023/05/02 02:05:14;;;;;;;7.97;2.53;;;10.20;99.90;;;;;;5012138;28;20223;-77
2023/05/02 02:07:43;;;;;;;5.80;1.60;;;10.20;99.90;;;;;;5012425;28;20218;-78
2023/05/02 02:10:10;;;;;;;9.27;1.90;;;10.20;99.90;;;;;;5015829;28;20226;-77
2023/05/02 02:12:40;;;;;;;6.47;1.73;;;10.20;99.90;;;;;;5015654;28;20238;-79
2023/05/02 02:15:13;;;;;;;7.00;2.43;;;10.20;99.90;;;;;;5015666;28;20191;-78
2023/05/02 02:17:44;;;;;;;5.17;1.80;;;10.10;99.90;;;;;;5028532;28;20209;-77
2023/05/02 02:20:15;;;;;;;3.73;1.70;;;10.10;99.90;;;;;;5033894;28;20497;-77
2023/05/02 02:22:44;;;;;;;8.03;2.07;;;10.10;99.90;;;;;;5016079;28;20286;-77
2023/05/02 02:25:18;;;;;;;6.33;1.80;;;10.00;99.90;;;;;;5015493;28;20603;-77
2023/05/02 02:27:45;;;;;;;6.37;1.60;;;10.00;99.90;;;;;;5015133;28;20225;-77
2023/05/02 02:30:12;;;;;;;6.50;1.67;;;9.90;99.90;;;;;;5015144;28;20207;-77
2023/05/02 02:32:39;;;;;;;4.97;1.77;;;9.90;99.90;;;;;;5015682;28;20195;-77
2023/05/02 02:35:07;;;;;;;8.33;2.00;;;10.00;99.90;;;;;;5014844;28;20195;-77
2023/05/02 02:37:41;;;;;;;5.33;1.50;;;10.00;99.90;;;;;;5015307;28;20215;-77
2023/05/02 02:40:15;;;;;;;8.53;2.63;;;9.90;99.90;;;;;;5015610;28;20202;-76
2023/05/02 02:42:46;;;;;;;7.47;1.93;;;9.90;99.90;;;;;;5014742;28;20285;-78
2023/05/02 02:45:23;;;;;;;7.30;1.77;;;9.90;99.90;;;;;;5015772;28;20210;-77
2023/05/02 02:47:58;;;;;;;7.57;1.80;;;10.00;99.90;;;;;;5015627;28;20270;-75
2023/05/02 02:50:31;;;;;;;5.70;1.77;;;10.00;99.90;;;;;;5015288;28;20209;-78
2023/05/02 02:53:04;;;;;;;8.80;2.10;;;10.00;99.90;;;;;;5015482;28;20199;-78
2023/05/02 02:55:38;;;;;;;6.50;2.27;;;9.90;99.90;;;;;;5013673;28;20608;-78
2023/05/02 02:58:17;;;;;;;9.70;2.50;;;9.80;99.90;;;;;;5015233;28;20196;-76
2023/05/02 03:00:46;;;;;;;6.63;1.93;;;9.80;99.90;;;;;;5015018;28;20206;-77
2023/05/02 03:03:15;;;;;;;7.77;2.00;;;9.80;99.90;;;;;;5014579;28;20286;-77
2023/05/02 03:05:42;;;;;;;7.53;2.07;;;9.80;99.90;;;;;;5015266;28;20305;-77
2023/05/02 03:08:11;;;;;;;11.27;2.73;;;9.80;99.90;;;;;;5015010;28;20271;-76
2023/05/02 03:10:38;;;;;;;8.37;2.30;;;9.80;99.90;;;;;;5029379;28;20206;-77
2023/05/02 03:13:05;;;;;;;4.90;1.73;;;9.80;99.90;;;;;;5034330;28;20242;-77
2023/05/02 03:16:04;;;;;;;10.97;2.03;;;9.80;99.90;;;;;;5034692;28;20193;-77
2023/05/02 03:18:32;;;;;;;7.23;2.47;;;9.70;99.90;;;;;;5014732;28;20551;-77
2023/05/02 03:20:59;;;;;;;9.30;2.37;;;9.80;99.90;;;;;;5014404;28;20210;-76
2023/05/02 03:23:28;;;;;;;9.37;2.57;;;9.70;99.90;;;;;;5020395;28;20268;-77
2023/05/02 03:25:54;;;;;;;6.07;2.40;;;9.70;99.90;;;;;;5034556;28;20232;-77
2023/05/02 03:28:21;;;;;;;10.87;3.03;;;9.80;99.90;;;;;;5034064;28;20675;-78
2023/05/02 03:30:48;;;;;;;15.83;2.57;;;9.70;99.90;;;;;;5029600;28;20608;-77
2023/05/02 03:33:15;;;;;;;9.20;2.57;;;9.70;99.90;;;;;;5013758;28;20278;-78
2023/05/02 03:35:42;;;;;;;8.77;2.40;;;9.60;99.90;;;;;;5014330;28;20279;-77
2023/05/02 03:38:09;;;;;;;10.77;2.57;;;9.60;99.90;;;;;;5013802;28;20604;-76
2023/05/02 03:40:37;;;;;;;13.47;2.97;;;9.60;99.90;;;;;;5018829;28;20209;-76
2023/05/02 03:43:04;;;;;;;12.80;3.57;;;9.60;99.90;;;;;;5034245;28;20207;-77
2023/05/02 03:45:30;;;;;;;13.07;3.20;;;9.50;99.90;;;;;;5032188;28;20615;-77
2023/05/02 03:47:57;;;;;;;12.10;3.60;;;9.50;99.90;;;;;;5033773;28;20218;-79
2023/05/02 03:50:24;;;;;;;10.20;4.10;;;9.40;99.90;;;;;;5033710;28;20207;-77
2023/05/02 03:52:51;;;;;;;12.37;3.00;;;9.40;99.90;;;;;;5029090;28;20195;-77
2023/05/02 03:55:18;;;;;;;15.47;3.87;;;9.40;99.90;;;;;;5014217;28;20203;-77
2023/05/02 03:57:46;;;;;;;13.50;3.53;;;9.40;99.90;;;;;;5013535;28;20202;-78
2023/05/02 04:00:14;;;;;;;18.30;3.77;;;9.40;99.90;;;;;;5013741;28;20285;-78
2023/05/02 04:02:41;;;;;;;13.13;3.93;;;9.30;99.90;;;;;;5013776;28;20619;-77
2023/05/02 04:05:08;;;;;;;11.27;2.77;;;9.40;99.90;;;;;;5013715;28;20326;-77
2023/05/02 04:07:35;;;;;;;16.43;3.77;;;9.40;99.90;;;;;;5013262;28;20230;-77
2023/05/02 04:10:02;;;;;;;14.50;3.60;;;9.30;99.90;;;;;;5013372;28;20187;-77
2023/05/02 04:12:29;;;;;;;15.43;3.57;;;9.30;99.90;;;;;;5013496;28;20238;-77
2023/05/02 04:14:57;;;;;;;17.57;3.57;;;9.30;99.90;;;;;;5013954;28;20205;-78
2023/05/02 04:17:24;;;;;;;15.60;3.70;;;9.20;99.90;;;;;;5013398;28;20211;-77
2023/05/02 04:19:52;;;;;;;13.17;3.57;;;9.20;99.90;;;;;;5013250;28;20293;-78
2023/05/02 04:22:19;;;;;;;14.10;3.10;;;9.20;99.90;;;;;;5013075;28;20207;-78
2023/05/02 04:24:46;;;;;;;15.20;3.70;;;9.20;99.90;;;;;;5012869;28;20242;-78
2023/05/02 04:27:13;;;;;;;11.33;3.50;;;9.20;99.90;;;;;;5012439;28;20228;-77
2023/05/02 04:29:40;;;;;;;10.20;3.03;;;9.30;99.90;;;;;;5013504;28;20294;-76
2023/05/02 04:32:08;;;;;;;12.93;3.40;;;9.30;99.90;;;;;;5013842;28;20590;-77
2023/05/02 04:34:35;;;;;;;12.80;3.60;;;9.30;99.90;;;;;;5012492;28;20218;-77
2023/05/02 04:37:02;;;;;;;10.30;2.77;;;9.20;99.90;;;;;;5013780;28;20491;-77
2023/05/02 04:39:29;;;;;;;17.57;4.03;;;9.20;99.90;;;;;;5013515;28;20207;-76
2023/05/02 04:41:56;;;;;;;8.40;2.83;;;9.20;99.90;;;;;;5013139;28;20215;-77
2023/05/02 04:44:22;;;;;;;12.73;3.30;;;9.20;99.90;;;;;;5018418;28;20206;-77
2023/05/02 04:46:49;;;;;;;9.87;2.67;;;9.30;99.90;;;;;;5018228;28;20219;-76
2023/05/02 04:49:17;;;;;;;12.27;2.87;;;9.20;99.90;;;;;;5013185;28;20287;-77
2023/05/02 04:51:45;;;;;;;18.00;4.40;;;9.20;99.90;;;;;;5013233;28;20254;-76
2023/05/02 04:54:12;;;;;;;9.83;2.97;;;9.30;99.90;;;;;;5013644;28;20199;-76
2023/05/02 04:56:39;;;;;;;12.43;3.80;;;9.30;99.90;;;;;;5024948;28;20199;-77
2023/05/02 04:59:06;;;;;;;11.73;2.73;;;9.30;99.90;;;;;;5032572;28;20206;-78
2023/05/02 05:01:33;;;;;;;9.40;2.53;;;9.20;99.90;;;;;;5013728;28;20685;-76
2023/05/02 05:03:59;;;;;;;10.07;3.30;;;9.20;99.90;;;;;;5012757;28;20195;-78
2023/05/02 05:06:28;;;;;;;8.60;2.80;;;9.20;99.90;;;;;;5013098;28;20330;-77
2023/05/02 05:08:55;;;;;;;13.07;3.33;;;9.10;99.90;;;;;;5012614;28;20200;-78
2023/05/02 05:11:22;;;;;;;5.23;2.40;;;9.20;99.90;;;;;;5011666;28;20211;-77
2023/05/02 05:13:49;;;;;;;7.53;2.37;;;9.20;94.10;;;;;;5012404;28;20255;-76
2023/05/02 05:16:16;;;;;;;9.80;2.67;;;9.20;78.20;;;;;;5012237;28;20290;-79
2023/05/02 05:18:42;;;;;;;10.20;2.63;;;9.10;83.10;;;;;;5012425;28;20213;-77
2023/05/02 05:21:10;;;;;;;8.03;3.30;;;9.10;43.10;;;;;;5012531;28;20314;-77
2023/05/02 05:23:44;;;;;;;10.83;3.10;;;9.10;93.00;;;;;;5011338;28;20206;-76
2023/05/02 05:26:12;;;;;;;7.40;2.63;;;9.10;99.90;;;;;;5012615;28;20230;-77
2023/05/02 05:28:39;;;;;;;7.67;2.43;;;9.20;29.10;;;;;;5030371;28;20230;-76
2023/05/02 05:31:07;;;;;;;16.60;2.90;;;9.20;43.10;;;;;;5031576;28;20639;-77
2023/05/02 05:33:33;;;;;;;9.03;2.60;;;9.20;56.10;;;;;;5032041;28;20633;-77
2023/05/02 05:36:05;;;;;;;12.43;3.07;;;9.20;28.00;;;;;;5031530;28;20199;-77
2023/05/02 05:38:32;;;;;;;9.87;3.03;;;9.30;1.00;;;;;;5032263;28;20191;-77
2023/05/02 05:41:00;;;;;;;7.77;2.23;;;9.30;1.00;;;;;;5032133;28;20565;-77
2023/05/02 05:43:27;;;;;;;10.40;2.70;;;9.30;1.00;;;;;;5029824;28;20206;-77
2023/05/02 05:45:54;;;;;;;9.13;2.70;;;9.40;1.00;;;;;;5031435;28;20203;-77
2023/05/02 05:48:21;;;;;;;6.33;2.80;;;9.40;1.00;;;;;;5031587;28;20305;-76
2023/05/02 05:50:48;;;;;;;7.23;2.33;;;9.40;1.00;;;;;;5032399;28;20209;-76
2023/05/02 05:53:16;;;;;;;6.40;2.00;;;9.40;1.00;;;;;;5026195;28;20207;-77
2023/05/02 05:55:43;;;;;;;9.07;2.47;;;9.30;1.00;;;;;;5012255;28;20266;-78
2023/05/02 05:58:12;;;;;;;10.43;2.57;;;9.30;13.50;;;;;;5011259;28;21020;-77
2023/05/02 06:00:40;;;;;;;5.97;2.20;;;9.20;1.00;;;;;;5012097;28;20262;-77
2023/05/02 06:03:07;;;;;;;10.43;2.50;;;9.20;64.30;;;;;;5012604;28;20738;-76
2023/05/02 06:05:34;;;;;;;7.60;2.73;;;9.20;13.00;;;;;;5011007;28;20202;-77
2023/05/02 06:08:01;;;;;;;17.30;2.60;;;9.30;1.00;;;;;;5011998;28;20227;-76
2023/05/02 06:10:28;;;;;;;4.90;2.40;;;9.30;1.00;;;;;;5011845;28;20529;-78
2023/05/02 06:12:55;;;;;;;11.30;3.50;;;9.30;1.00;;;;;;5010958;28;20918;-76
2023/05/02 06:15:24;;;;;;;5.43;1.93;;;9.40;1.00;;;;;;5011823;28;20230;-77
2023/05/02 06:17:51;;;;;;;10.37;2.83;;;9.50;1.00;;;;;;5011965;28;20278;-77
2023/05/02 06:20:18;;;;;;;10.43;2.70;;;9.60;12.10;;;;;;5024521;28;20214;-78
2023/05/02 06:22:45;;;;;;;6.17;2.10;;;9.70;1.00;;;;;;5030148;28;20198;-76
2023/05/02 06:25:11;;;;;;;9.50;3.00;;;9.70;1.00;;;;;;5010765;28;20195;-76
2023/05/02 06:27:38;;;;;;;4.80;2.07;;;9.80;1.00;;;;;;5011215;28;20234;-77
2023/05/02 06:30:07;;;;;;;12.20;1.97;;;9.90;1.00;;;;;;5011829;28;20226;-77
2023/05/02 06:32:35;;;;;;;9.47;2.10;;;10.00;1.00;;;;;;5011853;28;20206;-77
2023/05/02 06:35:02;;;;;;;8.63;2.37;;;10.20;1.00;;;;;;5010817;28;20199;-77
2023/05/02 06:37:33;;;;;;;6.57;1.83;;;10.40;1.00;;;;;;5011284;28;20199;-78
2023/05/02 06:40:00;;;;;;;3.63;1.40;;;10.70;99.90;;;;;;5011928;28;20199;-78
2023/05/02 06:42:28;;;;;;;3.00;1.30;;;10.90;1.00;;;;;;5011505;28;20195;-77
2023/05/02 06:44:55;;;;;;;4.60;1.57;;;11.10;1.00;;;;;;5011828;28;20231;-76
2023/05/02 06:47:23;;;;;;;6.27;1.43;;;11.20;1.00;;;;;;5010752;28;20215;-79
2023/05/02 06:49:51;;;;;;;4.53;1.30;;;11.40;1.00;;;;;;5011406;28;20851;-79
2023/05/02 06:52:18;;;;;;;3.30;1.23;;;11.60;1.00;;;;;;5011805;28;20234;-80
2023/05/02 06:54:45;;;;;;;5.07;1.30;;;12.00;1.00;;;;;;5013341;28;20199;-79
2023/05/02 06:57:12;;;;;;;5.43;1.70;;;12.20;99.90;;;;;;5033207;28;20206;-78
2023/05/02 06:59:39;;;;;;;3.43;1.57;;;12.50;99.90;;;;;;5034951;28;20289;-79
2023/05/02 07:02:07;;;;;;;6.23;1.73;;;12.80;99.90;;;;;;5028530;28;20246;-78
2023/05/02 07:04:33;;;;;;;5.00;1.50;;;12.60;99.90;;;;;;5032044;28;20244;-80
2023/05/02 07:07:02;;;;;;;6.80;1.50;;;12.10;99.90;;;;;;5007997;28;20222;-78
2023/05/02 07:09:29;;;;;;;4.60;1.50;;;11.80;99.90;;;;;;5032744;28;20198;-78
2023/05/02 07:11:56;;;;;;;4.67;1.70;;;11.60;99.90;;;;;;5028253;28;20248;-78
2023/05/02 07:14:23;;;;;;;5.30;1.57;;;11.60;99.90;;;;;;4997479;28;20287;-78
2023/05/02 07:16:50;;;;;;;3.33;1.20;;;11.50;99.90;;;;;;4993687;28;20240;-79
2023/05/02 07:19:17;;;;;;;3.33;1.20;;;11.40;99.90;;;;;;4994954;28;20247;-79
2023/05/02 07:21:43;;;;;;;4.40;1.40;;;11.40;99.90;;;;;;4994660;28;20215;-77
2023/05/02 07:24:12;;;;;;;4.00;1.10;;;11.40;99.90;;;;;;5007763;28;20286;-78
2023/05/02 07:26:39;;;;;;;1.63;1.43;;;11.50;99.90;;;;;;5003165;28;20194;-78
2023/05/02 07:29:08;;;;;;;5.80;1.60;;;11.60;99.90;;;;;;4996359;28;20311;-78
2023/05/02 07:31:35;;;;;;;5.23;1.70;;;11.60;99.90;;;;;;5003147;28;20290;-78
2023/05/02 07:34:02;;;;;;;7.13;1.90;;;11.60;99.90;;;;;;5003107;28;20200;-78
2023/05/02 07:36:29;;;;;;;4.07;1.63;;;11.50;99.90;;;;;;5004173;28;20219;-78
2023/05/02 07:38:56;;;;;;;4.23;1.23;;;11.40;99.90;;;;;;4999920;28;20200;-79
2023/05/02 07:41:24;;;;;;;3.07;1.60;;;11.30;99.90;;;;;;5001946;28;20212;-77
2023/05/02 07:43:51;;;;;;;8.27;2.23;;;11.20;99.90;;;;;;5005995;28;20298;-80
2023/05/02 07:46:18;;;;;;;4.47;2.13;;;11.20;99.90;;;;;;5000224;28;20283;-79
2023/05/02 07:48:45;;;;;;;5.63;2.27;;;11.30;99.90;;;;;;5008017;28;20227;-78
2023/05/02 07:51:12;;;;;;;4.83;1.63;;;11.50;99.90;;;;;;5011262;28;20282;-78
2023/05/02 07:53:39;;;;;;;4.23;1.63;;;11.70;99.90;;;;;;5008817;28;20548;-78
2023/05/02 07:56:07;;;;;;;4.47;1.57;;;11.70;99.90;;;;;;5004727;28;20200;-78
2023/05/02 07:58:36;;;;;;;2.87;1.30;;;11.80;99.90;;;;;;5002311;28;20208;-79
2023/05/02 08:01:04;;;;;;;4.80;1.53;;;12.00;99.90;;;;;;5001568;28;20675;-80
2023/05/02 08:03:31;;;;;;;4.03;1.50;;;12.10;99.90;;;;;;4993451;28;20298;-76
2023/05/02 08:05:57;;;;;;;4.87;1.40;;;12.10;99.90;;;;;;4995048;28;20200;-79
2023/05/02 08:08:24;;;;;;;3.67;1.30;;;12.10;99.90;;;;;;4999122;28;20624;-77
2023/05/02 08:10:51;;;;;;;7.53;2.17;;;12.00;99.90;;;;;;4996430;28;20200;-78
2023/05/02 08:13:18;;;;;;;3.93;1.30;;;11.90;99.90;;;;;;5008043;28;20326;-78
2023/05/02 08:15:46;;;;;;;3.83;1.60;;;11.80;99.90;;;;;;5012813;28;20207;-77
2023/05/02 08:18:13;;;;;;;3.07;1.53;;;11.70;99.90;;;;;;5013705;28;20202;-78
2023/05/02 08:20:40;;;;;;;5.97;1.80;;;11.70;99.90;;;;;;5013295;28;20213;-80
2023/05/02 08:23:07;;;;;;;5.00;1.67;;;11.80;99.90;;;;;;5013901;28;20211;-78
2023/05/02 08:25:33;;;;;;;7.77;1.97;;;11.80;99.90;;;;;;5018263;28;20207;-78
2023/05/02 08:28:00;;;;;;;5.97;2.07;;;11.80;99.90;;;;;;5012401;28;20231;-79
2023/05/02 08:30:27;;;;;;;5.80;2.23;;;11.90;99.90;;;;;;5013116;28;20238;-80
2023/05/02 08:32:55;;;;;;;8.00;2.20;;;12.00;99.90;;;;;;5013077;28;20207;-78
2023/05/02 08:35:22;;;;;;;6.17;1.50;;;12.10;99.90;;;;;;5014949;28;20205;-78
2023/05/02 08:37:49;;;;;;;8.27;3.43;;;12.00;99.90;;;;;;5021789;28;20202;-78
2023/05/02 08:40:17;;;;;;;5.63;2.30;;;12.10;99.90;;;;;;5019397;28;20214;-79
2023/05/02 08:42:45;;;;;;;7.03;2.07;;;12.40;99.90;;;;;;5033482;28;20191;-80
2023/05/02 08:45:14;;;;;;;5.23;1.93;;;12.60;99.90;;;;;;5031646;28;20268;-79
2023/05/02 08:47:42;;;;;;;6.80;1.63;;;12.60;99.90;;;;;;5032579;28;20307;-80
2023/05/02 08:50:11;;;;;;;5.30;1.77;;;12.70;99.90;;;;;;5028032;28;20214;-80
2023/05/02 08:52:38;;;;;;;6.33;2.23;;;12.60;99.90;;;;;;5030865;28;20245;-79
2023/05/02 08:55:07;;;;;;;6.60;1.90;;;12.50;99.90;;;;;;5031570;28;20297;-78
2023/05/02 08:57:34;;;;;;;4.27;1.70;;;12.50;99.90;;;;;;5018149;28;20603;-79
2023/05/02 09:00:01;;;;;;;5.67;1.53;;;12.50;99.90;;;;;;5012532;28;20282;-77
2023/05/02 09:02:44;;;;;;;14.30;2.67;;;12.60;99.90;;;;;;5027479;28;20203;-79
2023/05/02 09:05:19;;;;;;;6.00;1.97;;;12.50;99.90;;;;;;5031736;28;20497;-77
2023/05/02 09:07:47;;;;;;;19.07;10.50;;;12.70;99.90;;;;;;5031726;28;20589;-76
2023/05/02 09:10:14;;;;;;;31.93;19.93;;;12.70;99.90;;;;;;5013923;28;20208;-78
2023/05/02 09:12:41;;;;;;;59.43;25.53;;;12.50;99.90;;;;;;5012276;28;20238;-78
2023/05/02 09:15:13;;;;;;;10.50;7.67;;;12.80;99.90;;;;;;5012244;28;20211;-76
2023/05/02 09:17:44;;;;;;;4.67;1.47;;;13.40;99.90;;;;;;5026843;28;20290;-77
2023/05/02 09:20:14;;;;;;;5.00;1.87;;;13.70;99.90;;;;;;5015174;28;20206;-79
2023/05/02 09:22:49;;;;;;;4.97;1.80;;;13.70;99.90;;;;;;5030281;28;20209;-77
2023/05/02 09:25:16;;;;;;;5.07;2.10;;;13.70;99.90;;;;;;5012119;28;20207;-77
2023/05/02 09:27:51;;;;;;;4.90;1.60;;;13.20;99.90;;;;;;5011766;28;20521;-77
2023/05/02 09:30:22;;;;;;;5.03;1.87;;;13.20;99.90;;;;;;5011947;28;20210;-78
2023/05/02 09:32:51;;;;;;;12.63;5.43;;;13.30;99.90;;;;;;5012440;28;20202;-78
2023/05/02 09:35:22;;;;;;;10.80;2.67;;;13.40;99.90;;;;;;5012222;28;20199;-76
2023/05/02 09:37:51;;;;;;;13.10;4.40;;;13.40;99.90;;;;;;5011974;28;20199;-78
2023/05/02 09:40:19;;;;;;;6.73;2.53;;;13.20;99.90;;;;;;5011869;28;20254;-77
2023/05/02 09:42:46;;;;;;;7.50;1.90;;;13.30;99.90;;;;;;5012521;28;20461;-78
2023/05/02 09:45:21;;;;;;;5.53;1.90;;;13.30;99.90;;;;;;5030687;28;20210;-77
2023/05/02 09:47:48;;;;;;;6.40;2.90;;;13.30;99.90;;;;;;5027766;28;20291;-78
2023/05/02 09:50:34;;;;;;;26.73;10.90;;;13.40;99.90;;;;;;5011573;28;20205;-77
2023/05/02 09:53:02;;;;;;;9.37;2.27;;;13.30;99.90;;;;;;5011349;28;20528;-79
2023/05/02 09:55:29;;;;;;;5.03;2.10;;;13.20;99.90;;;;;;5011990;28;20215;-78
2023/05/02 09:57:56;;;;;;;6.77;1.90;;;13.00;99.90;;;;;;5011115;28;20210;-77
2023/05/02 10:00:37;;;;;;;4.93;2.20;;;13.30;99.90;;;;;;5012047;28;20587;-77
2023/05/02 10:03:07;;;;;;;5.13;1.70;;;13.70;99.90;;;;;;5012008;28;20198;-78
2023/05/02 10:05:37;;;;;;;5.07;1.87;;;13.90;99.90;;;;;;5010948;28;20268;-77
2023/05/02 10:08:05;;;;;;;3.90;1.43;;;14.20;99.90;;;;;;5011816;28;20451;-79
2023/05/02 10:10:35;;;;;;;5.45;1.20;;;14.20;99.90;;;;;;5011950;28;20210;-79
2023/05/02 10:13:04;;;;;;;4.97;1.63;;;14.20;99.90;;;;;;5011205;28;20241;-77
2023/05/02 10:15:33;;;;;;;5.90;1.80;;;14.30;99.90;;;;;;5025472;28;20202;-76
2023/05/02 10:18:01;;;;;;;3.83;1.85;;;14.50;99.90;;;;;;5031063;28;20299;-79
2023/05/02 10:20:34;;;;;;;4.33;1.20;;;14.50;99.90;;;;;;5031174;28;20285;-78
2023/05/02 10:23:03;;;;;;;8.07;1.95;;;14.10;99.90;;;;;;5023990;28;20192;-78
2023/05/02 10:25:30;;;;;;;6.20;1.80;;;14.10;99.90;;;;;;5011058;28;20199;-78
2023/05/02 10:27:58;;;;;;;4.72;1.60;;;14.20;99.90;;;;;;5027805;28;20583;-77
2023/05/02 10:30:26;;;;;;;3.80;1.52;;;14.20;99.90;;;;;;5034665;28;20199;-78
2023/05/02 10:32:54;;;;;;;4.38;1.58;;;14.30;99.90;;;;;;5016829;28;20317;-77
2023/05/02 10:35:23;;;;;;;2.67;1.50;;;14.50;99.90;;;;;;5015985;28;20207;-75
2023/05/02 10:37:50;;;;;;;3.78;1.40;;;14.70;99.90;;;;;;5015467;28;20662;-77
2023/05/02 10:40:19;;;;;;;2.67;1.25;;;14.60;99.90;;;;;;5014994;28;20261;-77
2023/05/02 10:42:50;;;;;;;2.97;1.83;;;14.80;99.90;;;;;;5014870;28;20318;-80
2023/05/02 10:45:31;;;;;;;4.10;1.70;;;14.90;99.90;;;;;;5015944;28;20198;-77
2023/05/02 10:48:18;;;;;;;4.32;1.80;;;15.00;99.90;;;;;;5014954;28;20219;-76
2023/05/02 10:50:50;;;;;;;3.88;1.92;;;15.20;99.90;;;;;;5015324;28;20238;-79
2023/05/02 10:53:28;;;;;;;6.47;1.95;;;15.30;99.90;;;;;;5015507;28;20203;-76
2023/05/02 10:56:20;;;;;;;5.13;2.10;;;15.40;99.90;;;;;;5015544;28;20203;-77
2023/05/02 10:58:49;;;;;;;4.07;1.98;;;15.40;99.90;;;;;;5015230;28;20286;-78
2023/05/02 11:01:36;;;;;;;5.85;1.98;;;15.50;99.90;;;;;;5014780;28;20199;-79
2023/05/02 11:04:05;;;;;;;4.78;2.25;;;15.60;99.90;;;;;;5014613;28;20218;-79
2023/05/02 11:06:33;;;;;;;4.78;1.90;;;15.80;99.90;;;;;;5014571;28;20199;-78
2023/05/02 11:09:32;;;;;;;4.60;1.80;;;15.90;99.90;;;;;;5014358;28;20215;-77
2023/05/02 11:12:00;;;;;;;4.22;1.80;;;15.80;99.90;;;;;;5007861;28;20505;-78
2023/05/02 11:14:48;;;;;;;4.78;1.90;;;16.00;99.90;;;;;;5017130;28;20206;-77
2023/05/02 11:17:16;;;;;;;5.18;1.60;;;16.10;99.90;;;;;;5024586;28;20783;-77
2023/05/02 11:20:28;;;;;;;6.35;1.50;;;15.80;99.90;;;;;;5033863;28;20194;-79
2023/05/02 11:22:59;;;;;;;5.57;2.00;;;15.60;99.90;;;;;;5028355;28;20599;-78
2023/05/02 11:25:36;;;;;;;6.22;2.30;;;15.50;99.90;;;;;;5033872;28;20194;-79
2023/05/02 11:28:08;;;;;;;6.70;2.35;;;15.60;99.90;;;;;;5033159;28;20305;-77
2023/05/02 11:30:47;;;;;;;4.55;1.58;;;15.60;99.90;;;;;;5028965;28;20195;-77
2023/05/02 11:33:18;;;;;;;4.43;1.88;;;15.50;99.90;;;;;;5023011;28;20257;-78
2023/05/02 11:35:49;;;;;;;7.57;2.42;;;15.50;99.90;;;;;;5027845;28;20203;-77
2023/05/02 11:38:21;;;;;;;8.77;2.03;;;15.50;99.90;;;;;;5034460;28;20664;-77
2023/05/02 11:40:56;;;;;;;7.85;2.45;;;15.60;99.90;;;;;;5030555;28;20203;-78
2023/05/02 11:43:25;;;;;;;9.10;3.00;;;15.50;99.90;;;;;;5029700;28;20603;-80
2023/05/02 11:45:53;;;;;;;8.27;2.10;;;15.40;99.90;;;;;;5034161;28;20210;-78
2023/05/02 11:48:22;;;;;;;6.80;1.95;;;15.50;99.90;;;;;;5034726;28;20242;-78
2023/05/02 11:50:51;;;;;;;3.42;1.60;;;15.70;99.90;;;;;;5033607;28;20572;-78
2023/05/02 11:53:21;;;;;;;5.30;2.10;;;15.60;99.90;;;;;;5034103;28;20261;-77
2023/05/02 11:55:49;;;;;;;5.75;2.03;;;15.40;99.90;;;;;;5013834;28;20265;-77
2023/05/02 11:58:18;;;;;;;9.68;1.90;;;15.50;99.90;;;;;;5017951;28;20569;-78
2023/05/02 12:00:47;;;;;;;4.47;2.00;;;15.30;99.90;;;;;;5024178;28;20209;-80
2023/05/02 12:03:25;;;;;;;8.55;2.10;;;15.20;99.90;;;;;;5024086;28;20290;-77
2023/05/02 12:05:52;;;;;;;6.00;1.70;;;15.10;99.90;;;;;;5013201;28;20202;-78
2023/05/02 12:08:24;;;;;;;5.75;1.70;;;15.20;99.90;;;;;;5012826;28;20281;-78
2023/05/02 12:10:52;;;;;;;7.03;2.00;;;15.30;99.90;;;;;;5012367;28;20204;-78
2023/05/02 12:13:22;;;;;;;6.97;2.53;;;15.10;99.90;;;;;;5013194;28;20235;-80
2023/05/02 12:15:52;;;;;;;5.25;1.80;;;15.20;99.90;;;;;;5012995;28;20204;-79
2023/05/02 12:18:22;;;;;;;6.78;2.30;;;15.20;99.90;;;;;;5011840;28;20199;-79
2023/05/02 12:20:50;;;;;;;5.65;1.98;;;15.20;99.90;;;;;;5011906;28;20878;-79
2023/05/02 12:23:17;;;;;;;4.18;1.70;;;15.10;99.90;;;;;;5013111;28;20253;-79
2023/05/02 12:25:44;;;;;;;9.13;2.25;;;15.00;99.90;;;;;;5013899;28;20204;-79
2023/05/02 12:28:11;;;;;;;5.50;1.90;;;15.20;99.90;;;;;;5014249;28;20311;-78
2023/05/02 12:30:40;;;;;;;4.72;1.92;;;15.10;99.90;;;;;;5013713;28;20524;-78
2023/05/02 12:33:09;;;;;;;5.30;2.10;;;15.10;99.90;;;;;;5012763;28;20199;-78
2023/05/02 12:35:36;;;;;;;5.95;2.00;;;15.10;99.40;;;;;;5013880;28;20560;-80
2023/05/02 12:38:11;;;;;;;9.18;2.28;;;15.20;99.90;;;;;;5015518;28;20592;-78
2023/05/02 12:40:38;;;;;;;7.07;2.00;;;15.40;99.90;;;;;;5032782;28;20209;-78
2023/05/02 12:43:09;;;;;;;4.82;2.35;;;15.30;99.90;;;;;;5033436;28;20193;-80
2023/05/02 12:45:36;;;;;;;6.88;2.85;;;15.20;98.90;;;;;;5033090;28;20195;-78
2023/05/02 12:48:19;;;;;;;7.25;1.38;;;15.20;99.90;;;;;;5031998;28;20194;-78
2023/05/02 12:50:46;;;;;;;5.43;1.63;;;15.20;99.00;;;;;;5033469;28;20543;-79
2023/05/02 12:53:13;;;;;;;5.82;1.63;;;15.00;99.00;;;;;;5032526;28;20257;-79
2023/05/02 12:55:40;;;;;;;3.13;1.90;;;15.00;99.90;;;;;;5033002;28;20229;-79
2023/05/02 12:58:09;;;;;;;3.90;1.80;;;15.00;99.80;;;;;;5031035;28;20205;-79